sensor_id;sensor_type;location;lat;lon;timestamp;pressure;altitude;pressure_sealevel;temperature;humidity
80568;BME280;69922;45.656;25.586;2023-05-21T00:00:36;95442.46;;;12.78;68.68
80568;BME280;69922;45.656;25.586;2023-05-21T00:02:03;95441.42;;;12.76;68.70
80568;BME280;69922;45.656;25.586;2023-05-21T00:03:10;95438.02;;;12.75;68.76
80568;BME280;69922;45.656;25.586;2023-05-21T00:04:19;95442.80;;;12.75;68.73
80568;BME280;69922;45.656;25.586;2023-05-21T00:05:26;95442.83;;;12.76;69.61
80568;BME280;69922;45.656;25.586;2023-05-21T00:06:32;95441.98;;;12.78;69.74
80568;BME280;69922;45.656;25.586;2023-05-21T00:07:42;95439.48;;;12.80;69.60
80568;BME280;69922;45.656;25.586;2023-05-21T00:08:50;95438.86;;;12.82;69.37
80568;BME280;69922;45.656;25.586;2023-05-21T00:09:56;95444.42;;;12.84;69.35
80568;BME280;69922;45.656;25.586;2023-05-21T00:11:02;95442.69;;;12.86;69.19
80568;BME280;69922;45.656;25.586;2023-05-21T00:12:09;95441.27;;;12.85;69.34
80568;BME280;69922;45.656;25.586;2023-05-21T00:13:15;95444.27;;;12.84;69.37
80568;BME280;69922;45.656;25.586;2023-05-21T00:14:22;95448.25;;;12.83;69.46
80568;BME280;69922;45.656;25.586;2023-05-21T00:15:27;95445.25;;;12.80;69.28
80568;BME280;69922;45.656;25.586;2023-05-21T00:16:34;95445.81;;;12.78;69.57
80568;BME280;69922;45.656;25.586;2023-05-21T00:17:40;95441.54;;;12.75;69.49
80568;BME280;69922;45.656;25.586;2023-05-21T00:18:48;95438.62;;;12.73;69.26
80568;BME280;69922;45.656;25.586;2023-05-21T00:19:55;95439.66;;;12.70;69.25
80568;BME280;69922;45.656;25.586;2023-05-21T00:21:02;95438.41;;;12.68;69.24
80568;BME280;69922;45.656;25.586;2023-05-21T00:22:11;95436.94;;;12.66;69.39
80568;BME280;69922;45.656;25.586;2023-05-21T00:23:19;95437.52;;;12.65;69.32
80568;BME280;69922;45.656;25.586;2023-05-21T00:24:26;95435.36;;;12.64;69.16
80568;BME280;69922;45.656;25.586;2023-05-21T00:25:33;95433.98;;;12.63;69.27
80568;BME280;69922;45.656;25.586;2023-05-21T00:26:40;95429.20;;;12.61;69.20
80568;BME280;69922;45.656;25.586;2023-05-21T00:27:47;95422.55;;;12.58;69.29
80568;BME280;69922;45.656;25.586;2023-05-21T00:28:53;95426.07;;;12.56;69.21
80568;BME280;69922;45.656;25.586;2023-05-21T00:29:59;95425.64;;;12.54;69.52
80568;BME280;69922;45.656;25.586;2023-05-21T00:31:06;95429.69;;;12.53;69.42
80568;BME280;69922;45.656;25.586;2023-05-21T00:32:12;95426.48;;;12.51;69.79
80568;BME280;69922;45.656;25.586;2023-05-21T00:33:20;95426.45;;;12.51;69.87
80568;BME280;69922;45.656;25.586;2023-05-21T00:34:26;95424.77;;;12.50;70.12
80568;BME280;69922;45.656;25.586;2023-05-21T00:35:33;95421.52;;;12.49;70.19
80568;BME280;69922;45.656;25.586;2023-05-21T00:36:46;95419.39;;;12.49;70.07
80568;BME280;69922;45.656;25.586;2023-05-21T00:37:52;95419.16;;;12.49;70.00
80568;BME280;69922;45.656;25.586;2023-05-21T00:38:58;95416.81;;;12.49;69.96
80568;BME280;69922;45.656;25.586;2023-05-21T00:40:09;95418.48;;;12.49;70.19
80568;BME280;69922;45.656;25.586;2023-05-21T00:41:18;95417.58;;;12.50;70.01
80568;BME280;69922;45.656;25.586;2023-05-21T00:42:25;95415.38;;;12.50;70.02
80568;BME280;69922;45.656;25.586;2023-05-21T00:43:31;95410.05;;;12.50;70.08
80568;BME280;69922;45.656;25.586;2023-05-21T00:44:39;95411.68;;;12.50;70.02
80568;BME280;69922;45.656;25.586;2023-05-21T00:45:46;95416.67;;;12.49;70.06
80568;BME280;69922;45.656;25.586;2023-05-21T00:46:54;95416.76;;;12.49;70.33
80568;BME280;69922;45.656;25.586;2023-05-21T00:48:00;95413.62;;;12.49;70.19
80568;BME280;69922;45.656;25.586;2023-05-21T00:49:07;95416.20;;;12.49;70.20
80568;BME280;69922;45.656;25.586;2023-05-21T00:50:15;95415.55;;;12.48;70.12
80568;BME280;69922;45.656;25.586;2023-05-21T00:51:22;95412.89;;;12.48;70.02
80568;BME280;69922;45.656;25.586;2023-05-21T00:52:30;95413.23;;;12.49;70.03
80568;BME280;69922;45.656;25.586;2023-05-21T00:53:37;95414.78;;;12.51;69.96
80568;BME280;69922;45.656;25.586;2023-05-21T00:54:43;95415.28;;;12.51;70.08
80568;BME280;69922;45.656;25.586;2023-05-21T00:55:50;95418.77;;;12.53;70.04
80568;BME280;69922;45.656;25.586;2023-05-21T00:56:57;95416.17;;;12.54;70.16
80568;BME280;69922;45.656;25.586;2023-05-21T00:58:04;95415.59;;;12.55;70.25
80568;BME280;69922;45.656;25.586;2023-05-21T00:59:11;95416.08;;;12.55;70.06
80568;BME280;69922;45.656;25.586;2023-05-21T01:00:18;95418.30;;;12.56;69.91
80568;BME280;69922;45.656;25.586;2023-05-21T01:01:25;95411.46;;;12.56;69.95
80568;BME280;69922;45.656;25.586;2023-05-21T01:02:32;95412.10;;;12.56;70.20
80568;BME280;69922;45.656;25.586;2023-05-21T01:03:40;95412.83;;;12.56;70.12
80568;BME280;69922;45.656;25.586;2023-05-21T01:04:47;95413.11;;;12.56;70.17
80568;BME280;69922;45.656;25.586;2023-05-21T01:05:54;95413.66;;;12.56;70.08
80568;BME280;69922;45.656;25.586;2023-05-21T01:07:05;95414.55;;;12.57;69.95
80568;BME280;69922;45.656;25.586;2023-05-21T01:08:17;95412.54;;;12.57;69.99
80568;BME280;69922;45.656;25.586;2023-05-21T01:09:25;95407.37;;;12.57;70.09
80568;BME280;69922;45.656;25.586;2023-05-21T01:10:32;95410.52;;;12.59;70.01
80568;BME280;69922;45.656;25.586;2023-05-21T01:11:43;95402.69;;;12.59;69.94
80568;BME280;69922;45.656;25.586;2023-05-21T01:12:50;95403.91;;;12.60;69.77
80568;BME280;69922;45.656;25.586;2023-05-21T01:14:02;95401.84;;;12.61;69.79
80568;BME280;69922;45.656;25.586;2023-05-21T01:15:12;95406.79;;;12.62;69.74
80568;BME280;69922;45.656;25.586;2023-05-21T01:16:19;95401.95;;;12.62;69.73
80568;BME280;69922;45.656;25.586;2023-05-21T01:17:29;95407.27;;;12.62;69.72
80568;BME280;69922;45.656;25.586;2023-05-21T01:18:38;95406.05;;;12.61;69.66
80568;BME280;69922;45.656;25.586;2023-05-21T01:19:49;95402.45;;;12.59;69.65
80568;BME280;69922;45.656;25.586;2023-05-21T01:20:56;95401.05;;;12.57;69.63
80568;BME280;69922;45.656;25.586;2023-05-21T01:22:06;95395.42;;;12.54;69.66
80568;BME280;69922;45.656;25.586;2023-05-21T01:23:14;95396.68;;;12.52;69.59
80568;BME280;69922;45.656;25.586;2023-05-21T01:24:21;95396.66;;;12.52;69.57
80568;BME280;69922;45.656;25.586;2023-05-21T01:25:28;95393.37;;;12.52;69.66
80568;BME280;69922;45.656;25.586;2023-05-21T01:26:36;95390.23;;;12.52;69.65
80568;BME280;69922;45.656;25.586;2023-05-21T01:27:44;95391.39;;;12.53;69.71
80568;BME280;69922;45.656;25.586;2023-05-21T01:28:51;95392.67;;;12.54;69.71
80568;BME280;69922;45.656;25.586;2023-05-21T01:30:01;95390.13;;;12.55;69.64
80568;BME280;69922;45.656;25.586;2023-05-21T01:31:15;95392.88;;;12.55;69.66
80568;BME280;69922;45.656;25.586;2023-05-21T01:32:28;95389.76;;;12.55;69.71
80568;BME280;69922;45.656;25.586;2023-05-21T01:33:44;95387.98;;;12.54;69.72
80568;BME280;69922;45.656;25.586;2023-05-21T01:34:59;95391.23;;;12.53;69.90
80568;BME280;69922;45.656;25.586;2023-05-21T01:36:12;95390.54;;;12.51;69.98
80568;BME280;69922;45.656;25.586;2023-05-21T01:37:26;95396.12;;;12.50;70.05
80568;BME280;69922;45.656;25.586;2023-05-21T01:38:39;95392.77;;;12.48;69.99
80568;BME280;69922;45.656;25.586;2023-05-21T01:39:55;95391.23;;;12.47;70.07
80568;BME280;69922;45.656;25.586;2023-05-21T01:41:05;95391.60;;;12.45;70.01
80568;BME280;69922;45.656;25.586;2023-05-21T01:42:14;95388.63;;;12.42;70.04
80568;BME280;69922;45.656;25.586;2023-05-21T01:43:23;95390.59;;;12.41;69.99
80568;BME280;69922;45.656;25.586;2023-05-21T01:44:33;95388.02;;;12.39;69.93
80568;BME280;69922;45.656;25.586;2023-05-21T01:45:43;95386.77;;;12.37;69.92
80568;BME280;69922;45.656;25.586;2023-05-21T01:46:52;95386.64;;;12.36;70.00
80568;BME280;69922;45.656;25.586;2023-05-21T01:48:00;95392.39;;;12.33;70.08
80568;BME280;69922;45.656;25.586;2023-05-21T01:49:14;95387.18;;;12.31;70.02
80568;BME280;69922;45.656;25.586;2023-05-21T01:50:25;95389.27;;;12.28;70.22
80568;BME280;69922;45.656;25.586;2023-05-21T01:51:33;95391.30;;;12.24;70.26
80568;BME280;69922;45.656;25.586;2023-05-21T01:52:39;95389.94;;;12.22;70.26
80568;BME280;69922;45.656;25.586;2023-05-21T01:53:53;95393.08;;;12.18;70.34
80568;BME280;69922;45.656;25.586;2023-05-21T01:55:01;95393.63;;;12.14;70.43
80568;BME280;69922;45.656;25.586;2023-05-21T01:56:10;95395.94;;;12.11;70.58
80568;BME280;69922;45.656;25.586;2023-05-21T01:57:16;95398.45;;;12.08;70.49
80568;BME280;69922;45.656;25.586;2023-05-21T01:58:23;95399.59;;;12.05;70.68
80568;BME280;69922;45.656;25.586;2023-05-21T01:59:29;95397.11;;;12.04;70.74
80568;BME280;69922;45.656;25.586;2023-05-21T02:00:37;95399.49;;;12.03;70.73
80568;BME280;69922;45.656;25.586;2023-05-21T02:01:45;95394.52;;;12.02;70.80
80568;BME280;69922;45.656;25.586;2023-05-21T02:02:52;95396.94;;;12.00;70.88
80568;BME280;69922;45.656;25.586;2023-05-21T02:04:07;95394.48;;;11.97;71.05
80568;BME280;69922;45.656;25.586;2023-05-21T02:05:16;95392.09;;;11.93;71.01
80568;BME280;69922;45.656;25.586;2023-05-21T02:06:22;95393.92;;;11.93;71.13
80568;BME280;69922;45.656;25.586;2023-05-21T02:07:29;95392.86;;;11.91;71.16
80568;BME280;69922;45.656;25.586;2023-05-21T02:08:38;95393.73;;;11.89;71.25
80568;BME280;69922;45.656;25.586;2023-05-21T02:09:45;95390.05;;;11.87;71.28
80568;BME280;69922;45.656;25.586;2023-05-21T02:10:51;95388.45;;;11.86;71.48
80568;BME280;69922;45.656;25.586;2023-05-21T02:11:58;95392.33;;;11.84;71.69
80568;BME280;69922;45.656;25.586;2023-05-21T02:13:04;95391.67;;;11.81;71.64
80568;BME280;69922;45.656;25.586;2023-05-21T02:14:11;95385.50;;;11.79;71.67
80568;BME280;69922;45.656;25.586;2023-05-21T02:15:20;95382.95;;;11.78;71.63
80568;BME280;69922;45.656;25.586;2023-05-21T02:16:29;95382.44;;;11.77;71.73
80568;BME280;69922;45.656;25.586;2023-05-21T02:17:37;95376.98;;;11.76;71.92
80568;BME280;69922;45.656;25.586;2023-05-21T02:18:44;95378.64;;;11.73;72.18
80568;BME280;69922;45.656;25.586;2023-05-21T02:19:53;95379.12;;;11.69;72.23
80568;BME280;69922;45.656;25.586;2023-05-21T02:21:01;95385.58;;;11.65;72.27
80568;BME280;69922;45.656;25.586;2023-05-21T02:22:09;95382.96;;;11.61;72.72
80568;BME280;69922;45.656;25.586;2023-05-21T02:23:16;95387.60;;;11.58;72.60
80568;BME280;69922;45.656;25.586;2023-05-21T02:24:21;95383.97;;;11.56;72.74
80568;BME280;69922;45.656;25.586;2023-05-21T02:25:29;95383.66;;;11.55;72.71
80568;BME280;69922;45.656;25.586;2023-05-21T02:26:35;95382.33;;;11.52;72.84
80568;BME280;69922;45.656;25.586;2023-05-21T02:27:42;95383.48;;;11.50;72.81
80568;BME280;69922;45.656;25.586;2023-05-21T02:28:49;95379.61;;;11.46;72.99
80568;BME280;69922;45.656;25.586;2023-05-21T02:29:58;95386.45;;;11.49;73.01
80568;BME280;69922;45.656;25.586;2023-05-21T02:31:04;95386.97;;;11.48;73.20
80568;BME280;69922;45.656;25.586;2023-05-21T02:32:10;95392.38;;;11.46;73.21
80568;BME280;69922;45.656;25.586;2023-05-21T02:33:18;95390.87;;;11.46;73.15
80568;BME280;69922;45.656;25.586;2023-05-21T02:34:26;95391.60;;;11.45;73.25
80568;BME280;69922;45.656;25.586;2023-05-21T02:35:36;95390.25;;;11.44;73.56
80568;BME280;69922;45.656;25.586;2023-05-21T02:36:42;95387.94;;;11.43;73.41
80568;BME280;69922;45.656;25.586;2023-05-21T02:37:48;95387.20;;;11.43;73.41
80568;BME280;69922;45.656;25.586;2023-05-21T02:38:55;95379.73;;;11.42;73.44
80568;BME280;69922;45.656;25.586;2023-05-21T02:40:03;95385.63;;;11.41;73.20
80568;BME280;69922;45.656;25.586;2023-05-21T02:41:11;95384.34;;;11.40;73.36
80568;BME280;69922;45.656;25.586;2023-05-21T02:42:18;95384.85;;;11.37;73.46
80568;BME280;69922;45.656;25.586;2023-05-21T02:43:26;95384.69;;;11.37;73.48
80568;BME280;69922;45.656;25.586;2023-05-21T02:44:32;95386.63;;;11.37;73.50
80568;BME280;69922;45.656;25.586;2023-05-21T02:45:39;95394.05;;;11.37;73.44
80568;BME280;69922;45.656;25.586;2023-05-21T02:46:45;95393.73;;;11.37;73.62
80568;BME280;69922;45.656;25.586;2023-05-21T02:47:51;95387.50;;;11.37;73.71
80568;BME280;69922;45.656;25.586;2023-05-21T02:48:57;95389.30;;;11.37;73.62
80568;BME280;69922;45.656;25.586;2023-05-21T02:50:07;95384.58;;;11.36;73.66
80568;BME280;69922;45.656;25.586;2023-05-21T02:51:15;95385.34;;;11.36;73.75
80568;BME280;69922;45.656;25.586;2023-05-21T02:52:23;95385.76;;;11.35;73.71
80568;BME280;69922;45.656;25.586;2023-05-21T02:53:31;95383.96;;;11.33;73.77
80568;BME280;69922;45.656;25.586;2023-05-21T02:54:37;95384.66;;;11.31;73.79
80568;BME280;69922;45.656;25.586;2023-05-21T02:55:43;95382.52;;;11.30;73.80
80568;BME280;69922;45.656;25.586;2023-05-21T02:56:49;95387.38;;;11.31;73.97
80568;BME280;69922;45.656;25.586;2023-05-21T02:57:56;95387.98;;;11.30;73.84
80568;BME280;69922;45.656;25.586;2023-05-21T02:59:02;95381.20;;;11.31;73.94
80568;BME280;69922;45.656;25.586;2023-05-21T03:00:12;95380.88;;;11.32;74.04
80568;BME280;69922;45.656;25.586;2023-05-21T03:01:16;95379.29;;;11.34;73.87
80568;BME280;69922;45.656;25.586;2023-05-21T03:02:24;95379.22;;;11.32;73.87
80568;BME280;69922;45.656;25.586;2023-05-21T03:03:31;95377.66;;;11.33;73.81
80568;BME280;69922;45.656;25.586;2023-05-21T03:04:39;95376.23;;;11.35;73.89
80568;BME280;69922;45.656;25.586;2023-05-21T03:05:52;95377.17;;;11.37;74.04
80568;BME280;69922;45.656;25.586;2023-05-21T03:07:00;95377.39;;;11.38;73.93
80568;BME280;69922;45.656;25.586;2023-05-21T03:08:07;95382.18;;;11.41;73.88
80568;BME280;69922;45.656;25.586;2023-05-21T03:09:13;95379.70;;;11.43;73.91
80568;BME280;69922;45.656;25.586;2023-05-21T03:10:19;95378.48;;;11.42;73.97
80568;BME280;69922;45.656;25.586;2023-05-21T03:11:26;95379.80;;;11.46;73.81
80568;BME280;69922;45.656;25.586;2023-05-21T03:12:32;95380.11;;;11.48;73.77
80568;BME280;69922;45.656;25.586;2023-05-21T03:13:38;95378.17;;;11.50;73.77
80568;BME280;69922;45.656;25.586;2023-05-21T03:14:45;95377.77;;;11.54;73.61
80568;BME280;69922;45.656;25.586;2023-05-21T03:15:52;95378.49;;;11.58;73.53
80568;BME280;69922;45.656;25.586;2023-05-21T03:17:01;95378.89;;;11.63;73.46
80568;BME280;69922;45.656;25.586;2023-05-21T03:18:11;95382.23;;;11.68;73.43
80568;BME280;69922;45.656;25.586;2023-05-21T03:19:18;95379.34;;;11.72;73.24
80568;BME280;69922;45.656;25.586;2023-05-21T03:20:26;95375.31;;;11.76;73.24
80568;BME280;69922;45.656;25.586;2023-05-21T03:21:35;95378.38;;;11.81;73.14
80568;BME280;69922;45.656;25.586;2023-05-21T03:22:42;95377.04;;;11.85;73.04
80568;BME280;69922;45.656;25.586;2023-05-21T03:23:49;95376.04;;;11.88;72.97
80568;BME280;69922;45.656;25.586;2023-05-21T03:24:57;95380.56;;;11.92;72.94
80568;BME280;69922;45.656;25.586;2023-05-21T03:26:03;95377.95;;;11.96;72.93
80568;BME280;69922;45.656;25.586;2023-05-21T03:27:09;95375.27;;;11.99;72.77
80568;BME280;69922;45.656;25.586;2023-05-21T03:28:16;95375.29;;;12.00;72.80
80568;BME280;69922;45.656;25.586;2023-05-21T03:29:23;95383.33;;;12.05;72.74
80568;BME280;69922;45.656;25.586;2023-05-21T03:30:30;95384.23;;;12.09;72.67
80568;BME280;69922;45.656;25.586;2023-05-21T03:31:36;95380.49;;;12.13;72.68
80568;BME280;69922;45.656;25.586;2023-05-21T03:32:43;95378.03;;;12.16;72.60
80568;BME280;69922;45.656;25.586;2023-05-21T03:33:51;95383.02;;;12.19;72.55
80568;BME280;69922;45.656;25.586;2023-05-21T03:34:58;95382.42;;;12.22;72.34
80568;BME280;69922;45.656;25.586;2023-05-21T03:36:05;95387.67;;;12.23;72.24
80568;BME280;69922;45.656;25.586;2023-05-21T03:37:13;95388.11;;;12.25;72.25
80568;BME280;69922;45.656;25.586;2023-05-21T03:38:19;95391.24;;;12.26;72.02
80568;BME280;69922;45.656;25.586;2023-05-21T03:39:27;95385.23;;;12.29;71.92
80568;BME280;69922;45.656;25.586;2023-05-21T03:40:34;95388.41;;;12.30;71.79
80568;BME280;69922;45.656;25.586;2023-05-21T03:41:40;95393.73;;;12.32;71.72
80568;BME280;69922;45.656;25.586;2023-05-21T03:42:47;95390.85;;;12.34;71.75
80568;BME280;69922;45.656;25.586;2023-05-21T03:43:53;95394.48;;;12.36;71.69
80568;BME280;69922;45.656;25.586;2023-05-21T03:44:59;95391.77;;;12.39;71.53
80568;BME280;69922;45.656;25.586;2023-05-21T03:46:06;95387.82;;;12.42;71.49
80568;BME280;69922;45.656;25.586;2023-05-21T03:47:12;95388.30;;;12.46;71.48
80568;BME280;69922;45.656;25.586;2023-05-21T03:48:18;95384.83;;;12.49;71.35
80568;BME280;69922;45.656;25.586;2023-05-21T03:49:26;95385.54;;;12.53;71.23
80568;BME280;69922;45.656;25.586;2023-05-21T03:50:33;95380.27;;;12.58;71.16
80568;BME280;69922;45.656;25.586;2023-05-21T03:51:39;95379.55;;;12.62;71.03
80568;BME280;69922;45.656;25.586;2023-05-21T03:52:45;95381.92;;;12.66;70.94
80568;BME280;69922;45.656;25.586;2023-05-21T03:53:51;95382.22;;;12.70;70.76
80568;BME280;69922;45.656;25.586;2023-05-21T03:54:58;95377.98;;;12.72;70.75
80568;BME280;69922;45.656;25.586;2023-05-21T03:56:07;95380.73;;;12.76;70.75
80568;BME280;69922;45.656;25.586;2023-05-21T03:57:13;95384.64;;;12.79;70.66
80568;BME280;69922;45.656;25.586;2023-05-21T03:58:19;95387.00;;;12.82;70.45
80568;BME280;69922;45.656;25.586;2023-05-21T03:59:26;95386.57;;;12.82;70.38
80568;BME280;69922;45.656;25.586;2023-05-21T04:00:32;95385.35;;;12.85;70.28
80568;BME280;69922;45.656;25.586;2023-05-21T04:01:41;95383.82;;;12.88;70.16
80568;BME280;69922;45.656;25.586;2023-05-21T04:02:47;95386.64;;;12.93;70.22
80568;BME280;69922;45.656;25.586;2023-05-21T04:03:54;95387.14;;;12.97;70.09
80568;BME280;69922;45.656;25.586;2023-05-21T04:05:00;95389.94;;;13.02;69.89
80568;BME280;69922;45.656;25.586;2023-05-21T04:06:07;95385.95;;;13.06;69.74
80568;BME280;69922;45.656;25.586;2023-05-21T04:07:18;95384.13;;;13.10;69.70
80568;BME280;69922;45.656;25.586;2023-05-21T04:08:24;95385.33;;;13.14;69.64
80568;BME280;69922;45.656;25.586;2023-05-21T04:09:31;95382.71;;;13.19;69.42
80568;BME280;69922;45.656;25.586;2023-05-21T04:10:39;95382.19;;;13.24;69.35
80568;BME280;69922;45.656;25.586;2023-05-21T04:11:45;95384.06;;;13.31;69.26
80568;BME280;69922;45.656;25.586;2023-05-21T04:12:53;95383.26;;;13.36;69.02
80568;BME280;69922;45.656;25.586;2023-05-21T04:13:59;95382.12;;;13.41;68.90
80568;BME280;69922;45.656;25.586;2023-05-21T04:15:09;95385.66;;;13.46;68.87
80568;BME280;69922;45.656;25.586;2023-05-21T04:16:14;95386.64;;;13.51;68.68
80568;BME280;69922;45.656;25.586;2023-05-21T04:17:25;95387.14;;;13.54;68.59
80568;BME280;69922;45.656;25.586;2023-05-21T04:18:32;95390.67;;;13.59;68.61
80568;BME280;69922;45.656;25.586;2023-05-21T04:19:39;95391.54;;;13.63;68.34
80568;BME280;69922;45.656;25.586;2023-05-21T04:20:46;95393.36;;;13.68;68.21
80568;BME280;69922;45.656;25.586;2023-05-21T04:21:56;95390.31;;;13.73;67.95
80568;BME280;69922;45.656;25.586;2023-05-21T04:23:02;95390.80;;;13.78;67.73
80568;BME280;69922;45.656;25.586;2023-05-21T04:24:11;95396.04;;;13.84;67.63
80568;BME280;69922;45.656;25.586;2023-05-21T04:25:17;95397.91;;;13.92;67.45
80568;BME280;69922;45.656;25.586;2023-05-21T04:26:25;95393.87;;;13.98;67.06
80568;BME280;69922;45.656;25.586;2023-05-21T04:27:31;95388.50;;;14.01;66.87
80568;BME280;69922;45.656;25.586;2023-05-21T04:28:39;95392.36;;;14.06;66.82
80568;BME280;69922;45.656;25.586;2023-05-21T04:29:46;95390.49;;;14.11;66.72
80568;BME280;69922;45.656;25.586;2023-05-21T04:30:57;95387.07;;;14.16;66.65
80568;BME280;69922;45.656;25.586;2023-05-21T04:32:04;95387.92;;;14.22;66.53
80568;BME280;69922;45.656;25.586;2023-05-21T04:33:11;95388.05;;;14.27;66.32
80568;BME280;69922;45.656;25.586;2023-05-21T04:34:17;95386.91;;;14.32;65.89
80568;BME280;69922;45.656;25.586;2023-05-21T04:35:24;95387.73;;;14.34;65.80
80568;BME280;69922;45.656;25.586;2023-05-21T04:36:31;95389.13;;;14.39;65.57
80568;BME280;69922;45.656;25.586;2023-05-21T04:37:47;95390.71;;;14.41;65.37
80568;BME280;69922;45.656;25.586;2023-05-21T04:38:53;95388.63;;;14.42;65.19
80568;BME280;69922;45.656;25.586;2023-05-21T04:40:00;95388.64;;;14.45;65.19
80568;BME280;69922;45.656;25.586;2023-05-21T04:41:10;95388.89;;;14.50;65.38
80568;BME280;69922;45.656;25.586;2023-05-21T04:42:20;95389.56;;;14.56;65.10
80568;BME280;69922;45.656;25.586;2023-05-21T04:43:29;95388.84;;;14.61;64.97
80568;BME280;69922;45.656;25.586;2023-05-21T04:44:38;95390.73;;;14.68;64.74
80568;BME280;69922;45.656;25.586;2023-05-21T04:45:45;95390.35;;;14.73;64.62
80568;BME280;69922;45.656;25.586;2023-05-21T04:46:52;95390.16;;;14.80;64.46
80568;BME280;69922;45.656;25.586;2023-05-21T04:48:00;95390.67;;;14.85;64.25
80568;BME280;69922;45.656;25.586;2023-05-21T04:49:05;95384.84;;;14.92;64.21
80568;BME280;69922;45.656;25.586;2023-05-21T04:50:13;95385.96;;;14.98;64.24
80568;BME280;69922;45.656;25.586;2023-05-21T04:51:21;95381.14;;;15.04;63.89
80568;BME280;69922;45.656;25.586;2023-05-21T04:52:29;95381.75;;;15.10;63.96
80568;BME280;69922;45.656;25.586;2023-05-21T04:53:37;95382.55;;;15.15;63.95
80568;BME280;69922;45.656;25.586;2023-05-21T04:54:43;95380.47;;;15.22;63.60
80568;BME280;69922;45.656;25.586;2023-05-21T04:55:52;95383.52;;;15.29;63.40
80568;BME280;69922;45.656;25.586;2023-05-21T04:56:57;95378.94;;;15.36;63.14
80568;BME280;69922;45.656;25.586;2023-05-21T04:58:04;95379.43;;;15.44;63.68
80568;BME280;69922;45.656;25.586;2023-05-21T04:59:10;95383.36;;;15.52;63.37
80568;BME280;69922;45.656;25.586;2023-05-21T05:00:16;95379.20;;;15.60;62.83
80568;BME280;69922;45.656;25.586;2023-05-21T05:01:25;95381.11;;;15.66;62.84
80568;BME280;69922;45.656;25.586;2023-05-21T05:02:32;95384.23;;;15.73;62.52
80568;BME280;69922;45.656;25.586;2023-05-21T05:03:38;95378.38;;;15.78;61.47
80568;BME280;69922;45.656;25.586;2023-05-21T05:04:44;95377.61;;;15.81;61.81
80568;BME280;69922;45.656;25.586;2023-05-21T05:05:51;95375.98;;;15.88;61.88
80568;BME280;69922;45.656;25.586;2023-05-21T05:06:57;95375.46;;;15.94;61.79
80568;BME280;69922;45.656;25.586;2023-05-21T05:08:05;95376.52;;;16.02;61.00
80568;BME280;69922;45.656;25.586;2023-05-21T05:09:12;95382.14;;;16.06;60.30
80568;BME280;69922;45.656;25.586;2023-05-21T05:10:18;95380.14;;;16.07;59.66
80568;BME280;69922;45.656;25.586;2023-05-21T05:11:25;95381.06;;;16.10;59.90
80568;BME280;69922;45.656;25.586;2023-05-21T05:12:31;95380.75;;;16.12;60.10
80568;BME280;69922;45.656;25.586;2023-05-21T05:13:37;95378.49;;;16.17;60.03
80568;BME280;69922;45.656;25.586;2023-05-21T05:14:44;95377.21;;;16.21;60.06
80568;BME280;69922;45.656;25.586;2023-05-21T05:15:51;95380.56;;;16.26;60.29
80568;BME280;69922;45.656;25.586;2023-05-21T05:17:00;95380.95;;;16.34;60.27
80568;BME280;69922;45.656;25.586;2023-05-21T05:18:08;95381.73;;;16.40;59.41
80568;BME280;69922;45.656;25.586;2023-05-21T05:19:14;95385.00;;;16.44;59.44
80568;BME280;69922;45.656;25.586;2023-05-21T05:20:21;95381.17;;;16.49;58.95
80568;BME280;69922;45.656;25.586;2023-05-21T05:21:28;95381.15;;;16.51;58.47
80568;BME280;69922;45.656;25.586;2023-05-21T05:22:34;95383.65;;;16.53;58.66
80568;BME280;69922;45.656;25.586;2023-05-21T05:23:40;95379.20;;;16.55;58.95
80568;BME280;69922;45.656;25.586;2023-05-21T05:24:47;95380.00;;;16.58;58.79
80568;BME280;69922;45.656;25.586;2023-05-21T05:25:53;95381.09;;;16.61;58.78
80568;BME280;69922;45.656;25.586;2023-05-21T05:26:59;95379.98;;;16.60;58.76
80568;BME280;69922;45.656;25.586;2023-05-21T05:28:06;95381.88;;;16.60;58.79
80568;BME280;69922;45.656;25.586;2023-05-21T05:29:12;95378.29;;;16.62;58.86
80568;BME280;69922;45.656;25.586;2023-05-21T05:30:18;95376.27;;;16.66;58.45
80568;BME280;69922;45.656;25.586;2023-05-21T05:31:27;95376.89;;;16.73;58.17
80568;BME280;69922;45.656;25.586;2023-05-21T05:32:35;95379.33;;;16.79;57.99
80568;BME280;69922;45.656;25.586;2023-05-21T05:33:42;95378.84;;;16.85;57.96
80568;BME280;69922;45.656;25.586;2023-05-21T05:34:48;95377.11;;;16.91;57.85
80568;BME280;69922;45.656;25.586;2023-05-21T05:35:54;95375.23;;;16.95;57.54
80568;BME280;69922;45.656;25.586;2023-05-21T05:37:00;95375.92;;;16.94;57.79
80568;BME280;69922;45.656;25.586;2023-05-21T05:38:07;95376.13;;;16.97;57.84
80568;BME280;69922;45.656;25.586;2023-05-21T05:39:14;95375.92;;;16.98;57.59
80568;BME280;69922;45.656;25.586;2023-05-21T05:40:20;95376.31;;;16.95;57.63
80568;BME280;69922;45.656;25.586;2023-05-21T05:41:26;95375.13;;;16.91;57.66
80568;BME280;69922;45.656;25.586;2023-05-21T05:42:32;95376.95;;;16.89;57.77
80568;BME280;69922;45.656;25.586;2023-05-21T05:43:38;95376.98;;;16.89;57.74
80568;BME280;69922;45.656;25.586;2023-05-21T05:44:44;95376.59;;;16.93;57.69
80568;BME280;69922;45.656;25.586;2023-05-21T05:45:51;95375.48;;;16.96;57.63
80568;BME280;69922;45.656;25.586;2023-05-21T05:46:56;95373.85;;;17.00;57.26
80568;BME280;69922;45.656;25.586;2023-05-21T05:48:05;95374.19;;;17.05;57.39
80568;BME280;69922;45.656;25.586;2023-05-21T05:49:12;95370.88;;;17.15;57.29
80568;BME280;69922;45.656;25.586;2023-05-21T05:50:22;95371.12;;;17.25;57.12
80568;BME280;69922;45.656;25.586;2023-05-21T05:51:28;95372.98;;;17.34;57.09
80568;BME280;69922;45.656;25.586;2023-05-21T05:52:35;95372.02;;;17.44;56.91
80568;BME280;69922;45.656;25.586;2023-05-21T05:53:41;95370.52;;;17.54;56.60